sensor_id;sensor_type;location;lat;lon;timestamp;temperature;humidity
12771;DHT22;6449;47.666;9.160;2022-09-20T00:03:54;10.30;99.90
12771;DHT22;6449;47.666;9.160;2022-09-20T00:08:49;10.50;99.90
12771;DHT22;6449;47.666;9.160;2022-09-20T00:13:43;10.50;99.90
12771;DHT22;6449;47.666;9.160;2022-09-20T00:18:40;10.30;99.90
12771;DHT22;6449;47.666;9.160;2022-09-20T00:23:33;10.00;99.90
12771;DHT22;6449;47.666;9.160;2022-09-20T00:28:27;10.00;99.90
12771;DHT22;6449;47.666;9.160;2022-09-20T00:33:23;9.90;99.90
12771;DHT22;6449;47.666;9.160;2022-09-20T00:38:39;9.70;99.90
12771;DHT22;6449;47.666;9.160;2022-09-20T00:43:38;9.90;99.90
12771;DHT22;6449;47.666;9.160;2022-09-20T00:48:33;9.90;99.90
12771;DHT22;6449;47.666;9.160;2022-09-20T00:53:29;9.80;99.90
12771;DHT22;6449;47.666;9.160;2022-09-20T00:58:28;9.90;99.90
12771;DHT22;6449;47.666;9.160;2022-09-20T01:03:29;9.70;99.90
12771;DHT22;6449;47.666;9.160;2022-09-20T01:08:24;9.70;99.90
12771;DHT22;6449;47.666;9.160;2022-09-20T01:13:17;9.80;99.90
12771;DHT22;6449;47.666;9.160;2022-09-20T01:18:12;9.60;99.90
12771;DHT22;6449;47.666;9.160;2022-09-20T01:23:23;9.50;99.90
12771;DHT22;6449;47.666;9.160;2022-09-20T01:28:27;9.50;99.90
12771;DHT22;6449;47.666;9.160;2022-09-20T01:33:27;9.50;99.90
12771;DHT22;6449;47.666;9.160;2022-09-20T01:38:33;9.60;99.90
12771;DHT22;6449;47.666;9.160;2022-09-20T01:43:41;9.60;99.90
12771;DHT22;6449;47.666;9.160;2022-09-20T01:48:39;9.60;99.90
12771;DHT22;6449;47.666;9.160;2022-09-20T02:11:02;9.30;99.90
12771;DHT22;6449;47.666;9.160;2022-09-20T02:16:31;9.40;99.90
12771;DHT22;6449;47.666;9.160;2022-09-20T02:21:47;9.30;99.90
12771;DHT22;6449;47.666;9.160;2022-09-20T02:26:50;9.20;99.90
12771;DHT22;6449;47.666;9.160;2022-09-20T02:32:22;9.10;99.90
12771;DHT22;6449;47.666;9.160;2022-09-20T02:37:53;9.00;99.90
12771;DHT22;6449;47.666;9.160;2022-09-20T02:42:56;9.00;99.90
12771;DHT22;6449;47.666;9.160;2022-09-20T02:48:02;8.90;99.90
12771;DHT22;6449;47.666;9.160;2022-09-20T02:53:06;9.00;99.90
12771;DHT22;6449;47.666;9.160;2022-09-20T02:58:24;8.90;99.90
12771;DHT22;6449;47.666;9.160;2022-09-20T03:03:36;9.00;99.90
12771;DHT22;6449;47.666;9.160;2022-09-20T03:08:44;8.90;99.90
12771;DHT22;6449;47.666;9.160;2022-09-20T03:14:00;8.80;99.90
12771;DHT22;6449;47.666;9.160;2022-09-20T03:19:09;8.60;99.90
12771;DHT22;6449;47.666;9.160;2022-09-20T03:24:24;8.70;99.90
12771;DHT22;6449;47.666;9.160;2022-09-20T03:29:41;8.70;99.90
12771;DHT22;6449;47.666;9.160;2022-09-20T03:35:01;8.70;99.90
12771;DHT22;6449;47.666;9.160;2022-09-20T03:40:28;8.70;99.90
12771;DHT22;6449;47.666;9.160;2022-09-20T03:45:46;8.90;99.90
12771;DHT22;6449;47.666;9.160;2022-09-20T03:50:59;8.80;99.90
12771;DHT22;6449;47.666;9.160;2022-09-20T04:02:13;8.50;99.90
12771;DHT22;6449;47.666;9.160;2022-09-20T04:07:25;8.30;99.90
12771;DHT22;6449;47.666;9.160;2022-09-20T04:12:31;8.20;99.90
12771;DHT22;6449;47.666;9.160;2022-09-20T04:17:46;8.20;99.90
12771;DHT22;6449;47.666;9.160;2022-09-20T04:22:50;8.20;99.90
12771;DHT22;6449;47.666;9.160;2022-09-20T04:27:51;8.30;99.90
12771;DHT22;6449;47.666;9.160;2022-09-20T04:32:54;8.20;99.90
12771;DHT22;6449;47.666;9.160;2022-09-20T04:37:54;8.30;99.90
12771;DHT22;6449;47.666;9.160;2022-09-20T04:48:55;8.40;99.90
12771;DHT22;6449;47.666;9.160;2022-09-20T04:54:42;8.30;99.90
12771;DHT22;6449;47.666;9.160;2022-09-20T05:00:04;8.20;99.90
12771;DHT22;6449;47.666;9.160;2022-09-20T05:16:28;7.90;99.90
12771;DHT22;6449;47.666;9.160;2022-09-20T05:21:51;8.00;99.90
12771;DHT22;6449;47.666;9.160;2022-09-20T05:27:11;8.10;99.90
12771;DHT22;6449;47.666;9.160;2022-09-20T05:32:21;7.90;99.90
12771;DHT22;6449;47.666;9.160;2022-09-20T05:37:30;7.90;99.90
12771;DHT22;6449;47.666;9.160;2022-09-20T05:42:39;7.90;99.90
12771;DHT22;6449;47.666;9.160;2022-09-20T05:47:45;8.00;99.90
12771;DHT22;6449;47.666;9.160;2022-09-20T05:52:50;8.10;99.90
12771;DHT22;6449;47.666;9.160;2022-09-20T05:58:02;7.90;99.90
12771;DHT22;6449;47.666;9.160;2022-09-20T06:03:11;8.20;99.90
12771;DHT22;6449;47.666;9.160;2022-09-20T06:08:29;8.20;99.90
12771;DHT22;6449;47.666;9.160;2022-09-20T06:13:50;8.30;99.90
12771;DHT22;6449;47.666;9.160;2022-09-20T06:19:01;8.40;99.90
12771;DHT22;6449;47.666;9.160;2022-09-20T06:24:15;8.50;99.90
12771;DHT22;6449;47.666;9.160;2022-09-20T06:29:21;8.70;99.90
12771;DHT22;6449;47.666;9.160;2022-09-20T06:34:21;8.90;99.90
12771;DHT22;6449;47.666;9.160;2022-09-20T06:39:20;9.00;99.90
12771;DHT22;6449;47.666;9.160;2022-09-20T06:44:40;9.20;99.90
12771;DHT22;6449;47.666;9.160;2022-09-20T06:49:34;9.30;99.90
12771;DHT22;6449;47.666;9.160;2022-09-20T06:54:28;9.50;99.90
12771;DHT22;6449;47.666;9.160;2022-09-20T06:59:21;9.60;99.90
12771;DHT22;6449;47.666;9.160;2022-09-20T07:04:16;9.60;99.90
12771;DHT22;6449;47.666;9.160;2022-09-20T07:09:11;9.60;99.90
12771;DHT22;6449;47.666;9.160;2022-09-20T07:14:35;9.60;99.90
12771;DHT22;6449;47.666;9.160;2022-09-20T07:26:17;9.80;99.90
12771;DHT22;6449;47.666;9.160;2022-09-20T07:31:34;9.90;99.90
12771;DHT22;6449;47.666;9.160;2022-09-20T07:37:18;10.00;99.90
12771;DHT22;6449;47.666;9.160;2022-09-20T07:42:38;10.10;99.90
12771;DHT22;6449;47.666;9.160;2022-09-20T07:48:34;10.40;99.90
12771;DHT22;6449;47.666;9.160;2022-09-20T07:54:29;10.70;99.90
12771;DHT22;6449;47.666;9.160;2022-09-20T08:06:07;11.20;99.90
12771;DHT22;6449;47.666;9.160;2022-09-20T08:11:34;11.50;99.90
12771;DHT22;6449;47.666;9.160;2022-09-20T08:16:56;11.90;99.90
12771;DHT22;6449;47.666;9.160;2022-09-20T08:22:30;12.10;99.90
12771;DHT22;6449;47.666;9.160;2022-09-20T08:27:23;12.50;99.90
12771;DHT22;6449;47.666;9.160;2022-09-20T08:32:18;12.40;99.90
12771;DHT22;6449;47.666;9.160;2022-09-20T08:37:11;12.20;99.90
12771;DHT22;6449;47.666;9.160;2022-09-20T08:42:12;12.30;99.90
12771;DHT22;6449;47.666;9.160;2022-09-20T08:47:19;12.50;99.90
12771;DHT22;6449;47.666;9.160;2022-09-20T08:52:16;12.60;99.90
12771;DHT22;6449;47.666;9.160;2022-09-20T08:57:15;12.70;99.90
12771;DHT22;6449;47.666;9.160;2022-09-20T09:02:15;13.10;99.90
12771;DHT22;6449;47.666;9.160;2022-09-20T09:07:13;13.20;99.90
12771;DHT22;6449;47.666;9.160;2022-09-20T09:12:17;13.70;99.90
12771;DHT22;6449;47.666;9.160;2022-09-20T09:17:15;13.60;99.90
12771;DHT22;6449;47.666;9.160;2022-09-20T09:22:10;13.80;99.90
12771;DHT22;6449;47.666;9.160;2022-09-20T09:27:14;13.70;99.90
12771;DHT22;6449;47.666;9.160;2022-09-20T09:32:19;13.70;99.90
12771;DHT22;6449;47.666;9.160;2022-09-20T09:37:24;13.90;99.90
12771;DHT22;6449;47.666;9.160;2022-09-20T09:42:21;13.90;99.90
12771;DHT22;6449;47.666;9.160;2022-09-20T09:47:24;13.40;99.90
12771;DHT22;6449;47.666;9.160;2022-09-20T09:52:19;13.00;99.90
12771;DHT22;6449;47.666;9.160;2022-09-20T09:57:30;13.20;99.90
12771;DHT22;6449;47.666;9.160;2022-09-20T10:03:04;13.40;99.90
12771;DHT22;6449;47.666;9.160;2022-09-20T10:08:16;13.80;99.90
12771;DHT22;6449;47.666;9.160;2022-09-20T10:13:26;14.00;99.90
12771;DHT22;6449;47.666;9.160;2022-09-20T10:18:39;13.80;99.90
12771;DHT22;6449;47.666;9.160;2022-09-20T10:23:50;14.00;99.90
12771;DHT22;6449;47.666;9.160;2022-09-20T10:29:03;14.40;99.90
12771;DHT22;6449;47.666;9.160;2022-09-20T10:34:33;14.60;99.90
12771;DHT22;6449;47.666;9.160;2022-09-20T10:39:40;14.50;99.90
12771;DHT22;6449;47.666;9.160;2022-09-20T10:44:49;14.30;99.90
12771;DHT22;6449;47.666;9.160;2022-09-20T10:49:59;14.20;99.90
12771;DHT22;6449;47.666;9.160;2022-09-20T10:55:23;14.20;99.90
12771;DHT22;6449;47.666;9.160;2022-09-20T11:00:34;14.20;99.90
12771;DHT22;6449;47.666;9.160;2022-09-20T11:05:49;14.30;99.90
12771;DHT22;6449;47.666;9.160;2022-09-20T11:10:53;14.40;99.90
12771;DHT22;6449;47.666;9.160;2022-09-20T11:15:56;14.30;99.90
12771;DHT22;6449;47.666;9.160;2022-09-20T11:21:01;14.30;99.90
12771;DHT22;6449;47.666;9.160;2022-09-20T11:26:06;14.50;99.90
12771;DHT22;6449;47.666;9.160;2022-09-20T11:31:08;14.40;99.90
12771;DHT22;6449;47.666;9.160;2022-09-20T11:36:09;14.50;99.90
12771;DHT22;6449;47.666;9.160;2022-09-20T11:41:12;14.50;99.90
12771;DHT22;6449;47.666;9.160;2022-09-20T11:46:13;14.40;99.90
12771;DHT22;6449;47.666;9.160;2022-09-20T11:51:39;14.30;99.90
12771;DHT22;6449;47.666;9.160;2022-09-20T11:56:49;14.30;99.90
12771;DHT22;6449;47.666;9.160;2022-09-20T12:01:45;14.20;99.90
12771;DHT22;6449;47.666;9.160;2022-09-20T12:06:40;14.20;99.90
12771;DHT22;6449;47.666;9.160;2022-09-20T12:11:35;14.10;99.90
12771;DHT22;6449;47.666;9.160;2022-09-20T12:16:37;14.10;99.90
12771;DHT22;6449;47.666;9.160;2022-09-20T12:27:22;14.00;99.90
12771;DHT22;6449;47.666;9.160;2022-09-20T12:32:50;13.90;99.90
12771;DHT22;6449;47.666;9.160;2022-09-20T12:37:48;13.80;99.90
12771;DHT22;6449;47.666;9.160;2022-09-20T12:42:41;14.00;99.90
12771;DHT22;6449;47.666;9.160;2022-09-20T12:47:36;14.00;99.90
12771;DHT22;6449;47.666;9.160;2022-09-20T12:57:52;14.40;99.90
12771;DHT22;6449;47.666;9.160;2022-09-20T13:02:57;14.50;99.90
12771;DHT22;6449;47.666;9.160;2022-09-20T13:07:55;14.70;99.90
12771;DHT22;6449;47.666;9.160;2022-09-20T13:12:57;14.60;99.90
12771;DHT22;6449;47.666;9.160;2022-09-20T13:17:56;14.60;99.90
12771;DHT22;6449;47.666;9.160;2022-09-20T13:22:55;14.50;99.90
12771;DHT22;6449;47.666;9.160;2022-09-20T13:27:58;14.50;99.90
12771;DHT22;6449;47.666;9.160;2022-09-20T13:33:15;14.50;99.90
12771;DHT22;6449;47.666;9.160;2022-09-20T13:38:16;14.40;99.90
12771;DHT22;6449;47.666;9.160;2022-09-20T13:43:23;14.30;99.90
12771;DHT22;6449;47.666;9.160;2022-09-20T13:48:23;14.20;99.90
12771;DHT22;6449;47.666;9.160;2022-09-20T13:53:21;14.20;99.90
12771;DHT22;6449;47.666;9.160;2022-09-20T13:58:33;14.20;99.90
12771;DHT22;6449;47.666;9.160;2022-09-20T14:03:29;14.20;99.90
12771;DHT22;6449;47.666;9.160;2022-09-20T14:08:31;14.10;99.90
12771;DHT22;6449;47.666;9.160;2022-09-20T14:13:32;14.00;99.90
12771;DHT22;6449;47.666;9.160;2022-09-20T14:18:29;14.00;99.90
12771;DHT22;6449;47.666;9.160;2022-09-20T14:23:24;14.00;99.90
12771;DHT22;6449;47.666;9.160;2022-09-20T14:28:24;14.10;99.90
12771;DHT22;6449;47.666;9.160;2022-09-20T14:33:20;14.10;99.90
12771;DHT22;6449;47.666;9.160;2022-09-20T14:38:14;14.00;99.90
12771;DHT22;6449;47.666;9.160;2022-09-20T14:43:23;13.90;99.90
12771;DHT22;6449;47.666;9.160;2022-09-20T14:48:33;13.90;99.90
12771;DHT22;6449;47.666;9.160;2022-09-20T14:53:28;14.00;99.90
12771;DHT22;6449;47.666;9.160;2022-09-20T14:58:24;14.10;99.90
12771;DHT22;6449;47.666;9.160;2022-09-20T15:03:24;14.10;99.90
12771;DHT22;6449;47.666;9.160;2022-09-20T15:08:22;14.10;99.90
12771;DHT22;6449;47.666;9.160;2022-09-20T15:13:15;14.10;99.90
12771;DHT22;6449;47.666;9.160;2022-09-20T15:18:18;14.00;99.90
12771;DHT22;6449;47.666;9.160;2022-09-20T15:23:13;14.00;99.90
12771;DHT22;6449;47.666;9.160;2022-09-20T15:28:10;13.90;99.90
12771;DHT22;6449;47.666;9.160;2022-09-20T15:33:08;13.80;99.90
12771;DHT22;6449;47.666;9.160;2022-09-20T15:38:03;13.80;99.90
12771;DHT22;6449;47.666;9.160;2022-09-20T15:42:59;13.80;99.90
12771;DHT22;6449;47.666;9.160;2022-09-20T15:47:53;13.60;99.90
12771;DHT22;6449;47.666;9.160;2022-09-20T15:52:48;13.60;99.90
12771;DHT22;6449;47.666;9.160;2022-09-20T15:57:44;13.70;99.90
12771;DHT22;6449;47.666;9.160;2022-09-20T16:02:39;13.70;99.90
12771;DHT22;6449;47.666;9.160;2022-09-20T16:07:32;13.60;99.90
12771;DHT22;6449;47.666;9.160;2022-09-20T16:12:26;13.60;99.90
12771;DHT22;6449;47.666;9.160;2022-09-20T16:17:21;13.60;99.90
12771;DHT22;6449;47.666;9.160;2022-09-20T16:22:34;13.70;99.90
12771;DHT22;6449;47.666;9.160;2022-09-20T16:27:27;13.60;99.90
12771;DHT22;6449;47.666;9.160;2022-09-20T16:32:26;13.50;99.90
12771;DHT22;6449;47.666;9.160;2022-09-20T16:37:19;13.40;99.90
12771;DHT22;6449;47.666;9.160;2022-09-20T16:42:13;13.30;99.90
12771;DHT22;6449;47.666;9.160;2022-09-20T16:47:09;13.30;99.90
12771;DHT22;6449;47.666;9.160;2022-09-20T16:52:10;13.20;99.90
12771;DHT22;6449;47.666;9.160;2022-09-20T16:57:03;13.10;99.90
12771;DHT22;6449;47.666;9.160;2022-09-20T17:01:57;13.00;99.90
12771;DHT22;6449;47.666;9.160;2022-09-20T17:06:50;12.90;99.90
12771;DHT22;6449;47.666;9.160;2022-09-20T17:11:46;12.70;99.90
12771;DHT22;6449;47.666;9.160;2022-09-20T17:16:42;12.70;99.90
12771;DHT22;6449;47.666;9.160;2022-09-20T17:21:39;12.70;99.90
12771;DHT22;6449;47.666;9.160;2022-09-20T17:26:42;12.70;99.90
12771;DHT22;6449;47.666;9.160;2022-09-20T17:31:39;12.60;99.90
12771;DHT22;6449;47.666;9.160;2022-09-20T17:36:35;12.70;99.90
12771;DHT22;6449;47.666;9.160;2022-09-20T17:41:32;12.70;99.90
12771;DHT22;6449;47.666;9.160;2022-09-20T17:46:29;12.70;99.90
12771;DHT22;6449;47.666;9.160;2022-09-20T17:51:24;12.80;99.90
12771;DHT22;6449;47.666;9.160;2022-09-20T17:56:19;12.80;99.90
12771;DHT22;6449;47.666;9.160;2022-09-20T18:01:15;12.80;99.90
12771;DHT22;6449;47.666;9.160;2022-09-20T18:06:14;12.70;99.90
12771;DHT22;6449;47.666;9.160;2022-09-20T18:11:09;12.60;99.90
12771;DHT22;6449;47.666;9.160;2022-09-20T18:16:02;12.50;99.90
12771;DHT22;6449;47.666;9.160;2022-09-20T18:20:59;12.30;99.90
12771;DHT22;6449;47.666;9.160;2022-09-20T18:26:06;12.10;99.90
12771;DHT22;6449;47.666;9.160;2022-09-20T18:31:16;12.00;99.90
12771;DHT22;6449;47.666;9.160;2022-09-20T18:36:10;11.90;99.90
12771;DHT22;6449;47.666;9.160;2022-09-20T18:41:04;11.80;99.90
12771;DHT22;6449;47.666;9.160;2022-09-20T18:45:58;11.70;99.90
12771;DHT22;6449;47.666;9.160;2022-09-20T18:50:58;11.60;99.90
12771;DHT22;6449;47.666;9.160;2022-09-20T18:55:53;11.40;99.90
12771;DHT22;6449;47.666;9.160;2022-09-20T19:00:57;11.40;99.90
12771;DHT22;6449;47.666;9.160;2022-09-20T19:06:04;11.30;99.90
12771;DHT22;6449;47.666;9.160;2022-09-20T19:11:08;11.30;99.90
12771;DHT22;6449;47.666;9.160;2022-09-20T19:16:34;11.40;99.90
12771;DHT22;6449;47.666;9.160;2022-09-20T19:22:12;11.40;99.90
12771;DHT22;6449;47.666;9.160;2022-09-20T19:27:35;11.40;99.90
12771;DHT22;6449;47.666;9.160;2022-09-20T19:32:46;11.50;99.90
12771;DHT22;6449;47.666;9.160;2022-09-20T19:38:03;11.60;99.90
12771;DHT22;6449;47.666;9.160;2022-09-20T19:44:01;11.60;99.90
12771;DHT22;6449;47.666;9.160;2022-09-20T19:50:25;11.60;99.90
12771;DHT22;6449;47.666;9.160;2022-09-20T19:55:49;11.60;99.90
12771;DHT22;6449;47.666;9.160;2022-09-20T20:00:52;11.30;99.90
12771;DHT22;6449;47.666;9.160;2022-09-20T20:06:28;11.20;99.90
12771;DHT22;6449;47.666;9.160;2022-09-20T20:11:56;11.30;99.90
12771;DHT22;6449;47.666;9.160;2022-09-20T20:23:37;11.10;99.90
12771;DHT22;6449;47.666;9.160;2022-09-20T20:29:46;11.00;99.90
12771;DHT22;6449;47.666;9.160;2022-09-20T20:35:11;11.10;99.90
12771;DHT22;6449;47.666;9.160;2022-09-20T20:40:20;11.20;99.90
12771;DHT22;6449;47.666;9.160;2022-09-20T20:45:58;11.20;99.90
12771;DHT22;6449;47.666;9.160;2022-09-20T20:51:01;11.20;99.90
12771;DHT22;6449;47.666;9.160;2022-09-20T20:56:02;11.40;99.90
12771;DHT22;6449;47.666;9.160;2022-09-20T21:01:10;11.20;99.90
12771;DHT22;6449;47.666;9.160;2022-09-20T21:06:04;11.20;99.90
12771;DHT22;6449;47.666;9.160;2022-09-20T21:11:00;11.20;99.90
12771;DHT22;6449;47.666;9.160;2022-09-20T21:16:04;11.20;99.90
12771;DHT22;6449;47.666;9.160;2022-09-20T21:21:03;11.20;99.90
12771;DHT22;6449;47.666;9.160;2022-09-20T21:26:06;11.20;99.90
12771;DHT22;6449;47.666;9.160;2022-09-20T21:31:03;11.30;99.90
12771;DHT22;6449;47.666;9.160;2022-09-20T21:35:58;11.40;99.90
12771;DHT22;6449;47.666;9.160;2022-09-20T21:41:00;11.50;99.90
12771;DHT22;6449;47.666;9.160;2022-09-20T21:45:54;11.50;99.90
12771;DHT22;6449;47.666;9.160;2022-09-20T21:50:49;11.50;99.90
12771;DHT22;6449;47.666;9.160;2022-09-20T21:55:43;11.50;99.90
12771;DHT22;6449;47.666;9.160;2022-09-20T22:00:38;11.50;99.90
12771;DHT22;6449;47.666;9.160;2022-09-20T22:05:32;11.50;99.90
12771;DHT22;6449;47.666;9.160;2022-09-20T22:10:26;11.70;99.90
12771;DHT22;6449;47.666;9.160;2022-09-20T22:15:20;11.60;99.90
12771;DHT22;6449;47.666;9.160;2022-09-20T22:20:14;11.60;99.90
12771;DHT22;6449;47.666;9.160;2022-09-20T22:25:08;11.60;99.90
12771;DHT22;6449;47.666;9.160;2022-09-20T22:30:02;11.60;99.90
12771;DHT22;6449;47.666;9.160;2022-09-20T22:34:56;11.60;99.90
12771;DHT22;6449;47.666;9.160;2022-09-20T22:39:51;11.50;99.90
12771;DHT22;6449;47.666;9.160;2022-09-20T22:44:44;11.40;99.90
12771;DHT22;6449;47.666;9.160;2022-09-20T22:49:38;11.40;99.90
12771;DHT22;6449;47.666;9.160;2022-09-20T22:54:31;11.50;99.90
12771;DHT22;6449;47.666;9.160;2022-09-20T22:59:27;11.60;99.90
12771;DHT22;6449;47.666;9.160;2022-09-20T23:04:20;11.50;99.90
12771;DHT22;6449;47.666;9.160;2022-09-20T23:09:16;11.50;99.90
12771;DHT22;6449;47.666;9.160;2022-09-20T23:14:11;11.30;99.90
12771;DHT22;6449;47.666;9.160;2022-09-20T23:19:07;11.20;99.90
12771;DHT22;6449;47.666;9.160;2022-09-20T23:24:04;11.10;99.90
12771;DHT22;6449;47.666;9.160;2022-09-20T23:28:59;11.00;99.90
12771;DHT22;6449;47.666;9.160;2022-09-20T23:33:55;11.00;99.90
12771;DHT22;6449;47.666;9.160;2022-09-20T23:38:51;10.70;99.90
12771;DHT22;6449;47.666;9.160;2022-09-20T23:43:45;10.60;99.90
12771;DHT22;6449;47.666;9.160;2022-09-20T23:48:39;10.50;99.90
12771;DHT22;6449;47.666;9.160;2022-09-20T23:53:34;10.50;99.90
12771;DHT22;6449;47.666;9.160;2022-09-20T23:58:29;10.40;99.90
